sensor_id;sensor_type;location;lat;lon;timestamp;pressure;altitude;pressure_sealevel;temperature;humidity
79612;BME280;69094;48.154;11.536;2023-10-31T00:00:08;94065.53;;;9.62;91.07
79612;BME280;69094;48.154;11.536;2023-10-31T00:02:34;94061.59;;;9.59;91.25
79612;BME280;69094;48.154;11.536;2023-10-31T00:05:00;94067.66;;;9.53;90.92
79612;BME280;69094;48.154;11.536;2023-10-31T00:07:25;94063.28;;;9.48;90.76
79612;BME280;69094;48.154;11.536;2023-10-31T00:09:50;94058.06;;;9.39;91.45
79612;BME280;69094;48.154;11.536;2023-10-31T00:12:16;94063.56;;;9.43;91.74
79612;BME280;69094;48.154;11.536;2023-10-31T00:14:41;94080.13;;;9.38;91.13
79612;BME280;69094;48.154;11.536;2023-10-31T00:17:07;94073.03;;;9.33;90.21
79612;BME280;69094;48.154;11.536;2023-10-31T00:19:32;94063.16;;;9.25;89.79
79612;BME280;69094;48.154;11.536;2023-10-31T00:21:57;94060.72;;;9.20;89.14
79612;BME280;69094;48.154;11.536;2023-10-31T00:24:23;94067.28;;;9.19;89.61
79612;BME280;69094;48.154;11.536;2023-10-31T00:26:48;94069.56;;;9.17;89.87
79612;BME280;69094;48.154;11.536;2023-10-31T00:29:13;94075.25;;;9.12;89.79
79612;BME280;69094;48.154;11.536;2023-10-31T00:31:39;94077.56;;;9.10;89.72
79612;BME280;69094;48.154;11.536;2023-10-31T00:34:08;94081.47;;;9.12;89.71
79612;BME280;69094;48.154;11.536;2023-10-31T00:36:34;94073.69;;;9.11;88.72
79612;BME280;69094;48.154;11.536;2023-10-31T00:38:59;94080.69;;;9.12;89.45
79612;BME280;69094;48.154;11.536;2023-10-31T00:41:24;94080.34;;;9.13;88.33
79612;BME280;69094;48.154;11.536;2023-10-31T00:43:50;94064.25;;;9.04;88.88
79612;BME280;69094;48.154;11.536;2023-10-31T00:48:50;94071.16;;;9.02;89.27
79612;BME280;69094;48.154;11.536;2023-10-31T00:51:16;94078.50;;;9.01;89.41
79612;BME280;69094;48.154;11.536;2023-10-31T00:53:42;94064.06;;;8.97;90.34
79612;BME280;69094;48.154;11.536;2023-10-31T00:56:07;94072.47;;;9.08;91.11
79612;BME280;69094;48.154;11.536;2023-10-31T00:58:33;94080.59;;;9.08;89.37
79612;BME280;69094;48.154;11.536;2023-10-31T01:00:58;94085.84;;;9.01;90.27
79612;BME280;69094;48.154;11.536;2023-10-31T01:03:24;94080.34;;;8.97;90.34
79612;BME280;69094;48.154;11.536;2023-10-31T01:05:49;94054.16;;;8.89;90.39
79612;BME280;69094;48.154;11.536;2023-10-31T01:08:17;94072.13;;;8.94;90.50
79612;BME280;69094;48.154;11.536;2023-10-31T01:10:42;94080.69;;;8.96;89.93
79612;BME280;69094;48.154;11.536;2023-10-31T01:13:08;94083.41;;;8.96;90.37
79612;BME280;69094;48.154;11.536;2023-10-31T01:15:33;94078.75;;;8.96;90.12
79612;BME280;69094;48.154;11.536;2023-10-31T01:17:58;94077.97;;;8.96;89.58
79612;BME280;69094;48.154;11.536;2023-10-31T01:20:24;94087.28;;;8.95;89.99
79612;BME280;69094;48.154;11.536;2023-10-31T01:22:49;94090.66;;;8.92;89.71
79612;BME280;69094;48.154;11.536;2023-10-31T01:25:15;94089.53;;;8.93;89.90
79612;BME280;69094;48.154;11.536;2023-10-31T01:27:40;94090.25;;;8.90;89.06
79612;BME280;69094;48.154;11.536;2023-10-31T01:30:07;94085.34;;;8.95;89.37
79612;BME280;69094;48.154;11.536;2023-10-31T01:32:33;94087.72;;;8.97;89.64
79612;BME280;69094;48.154;11.536;2023-10-31T01:34:58;94083.34;;;8.92;89.45
79612;BME280;69094;48.154;11.536;2023-10-31T01:37:23;94102.06;;;8.97;89.36
79612;BME280;69094;48.154;11.536;2023-10-31T01:39:49;94092.31;;;8.96;89.85
79612;BME280;69094;48.154;11.536;2023-10-31T01:42:14;94102.50;;;8.99;89.65
79612;BME280;69094;48.154;11.536;2023-10-31T01:44:41;94096.97;;;8.96;89.52
79612;BME280;69094;48.154;11.536;2023-10-31T01:47:06;94103.19;;;8.96;89.14
79612;BME280;69094;48.154;11.536;2023-10-31T01:49:32;94097.31;;;8.94;89.13
79612;BME280;69094;48.154;11.536;2023-10-31T01:51:59;94098.56;;;8.97;88.68
79612;BME280;69094;48.154;11.536;2023-10-31T01:54:25;94097.31;;;8.94;88.87
79612;BME280;69094;48.154;11.536;2023-10-31T01:56:51;94083.59;;;8.87;89.40
79612;BME280;69094;48.154;11.536;2023-10-31T01:59:21;94083.91;;;9.01;88.66
79612;BME280;69094;48.154;11.536;2023-10-31T02:01:47;94085.16;;;9.04;88.34
79612;BME280;69094;48.154;11.536;2023-10-31T02:04:13;94100.13;;;8.98;88.51
79612;BME280;69094;48.154;11.536;2023-10-31T02:06:38;94100.47;;;8.96;89.16
79612;BME280;69094;48.154;11.536;2023-10-31T02:09:04;94097.94;;;8.88;88.98
79612;BME280;69094;48.154;11.536;2023-10-31T02:11:29;94117.78;;;8.92;88.95
79612;BME280;69094;48.154;11.536;2023-10-31T02:13:54;94112.63;;;8.87;89.39
79612;BME280;69094;48.154;11.536;2023-10-31T02:16:20;94116.50;;;8.86;90.09
79612;BME280;69094;48.154;11.536;2023-10-31T02:18:45;94115.06;;;8.76;89.80
79612;BME280;69094;48.154;11.536;2023-10-31T02:21:10;94112.69;;;8.74;90.20
79612;BME280;69094;48.154;11.536;2023-10-31T02:23:36;94123.56;;;8.74;89.96
79612;BME280;69094;48.154;11.536;2023-10-31T02:26:02;94132.25;;;8.80;90.53
79612;BME280;69094;48.154;11.536;2023-10-31T02:28:28;94128.56;;;8.72;89.90
79612;BME280;69094;48.154;11.536;2023-10-31T02:30:54;94149.44;;;8.72;89.89
79612;BME280;69094;48.154;11.536;2023-10-31T02:33:20;94138.97;;;8.70;89.38
79612;BME280;69094;48.154;11.536;2023-10-31T02:35:45;94151.75;;;8.70;90.04
79612;BME280;69094;48.154;11.536;2023-10-31T02:38:11;94150.16;;;8.69;89.89
79612;BME280;69094;48.154;11.536;2023-10-31T02:40:36;94158.88;;;8.62;89.79
79612;BME280;69094;48.154;11.536;2023-10-31T02:43:02;94150.31;;;8.60;90.57
79612;BME280;69094;48.154;11.536;2023-10-31T02:45:27;94148.13;;;8.66;89.60
79612;BME280;69094;48.154;11.536;2023-10-31T02:47:53;94136.41;;;8.61;90.00
79612;BME280;69094;48.154;11.536;2023-10-31T02:50:18;94156.06;;;8.58;89.38
79612;BME280;69094;48.154;11.536;2023-10-31T02:52:44;94151.00;;;8.57;89.84
79612;BME280;69094;48.154;11.536;2023-10-31T02:55:09;94126.50;;;8.53;90.57
79612;BME280;69094;48.154;11.536;2023-10-31T02:57:34;94131.16;;;8.53;89.38
79612;BME280;69094;48.154;11.536;2023-10-31T03:00:00;94136.66;;;8.56;89.66
79612;BME280;69094;48.154;11.536;2023-10-31T03:02:26;94130.00;;;8.54;89.60
79612;BME280;69094;48.154;11.536;2023-10-31T03:04:52;94138.81;;;8.51;89.97
79612;BME280;69094;48.154;11.536;2023-10-31T03:07:17;94148.97;;;8.54;89.87
79612;BME280;69094;48.154;11.536;2023-10-31T03:09:43;94162.91;;;8.52;89.67
79612;BME280;69094;48.154;11.536;2023-10-31T03:12:08;94157.03;;;8.50;89.83
79612;BME280;69094;48.154;11.536;2023-10-31T03:14:33;94157.47;;;8.52;91.34
79612;BME280;69094;48.154;11.536;2023-10-31T03:16:59;94164.47;;;8.53;89.86
79612;BME280;69094;48.154;11.536;2023-10-31T03:19:24;94177.22;;;8.53;89.93
79612;BME280;69094;48.154;11.536;2023-10-31T03:21:50;94167.31;;;8.45;90.73
79612;BME280;69094;48.154;11.536;2023-10-31T03:24:15;94175.88;;;8.47;90.00
79612;BME280;69094;48.154;11.536;2023-10-31T03:26:40;94171.28;;;8.47;89.51
79612;BME280;69094;48.154;11.536;2023-10-31T03:29:06;94168.19;;;8.49;89.40
79612;BME280;69094;48.154;11.536;2023-10-31T03:31:31;94163.69;;;8.53;88.42
79612;BME280;69094;48.154;11.536;2023-10-31T03:33:56;94159.75;;;8.50;88.82
79612;BME280;69094;48.154;11.536;2023-10-31T03:36:22;94141.47;;;8.47;89.00
79612;BME280;69094;48.154;11.536;2023-10-31T03:38:47;94150.38;;;8.48;88.93
79612;BME280;69094;48.154;11.536;2023-10-31T03:41:12;94167.09;;;8.50;88.95
79612;BME280;69094;48.154;11.536;2023-10-31T03:43:38;94155.88;;;8.51;88.56
79612;BME280;69094;48.154;11.536;2023-10-31T03:46:04;94152.47;;;8.54;88.36
79612;BME280;69094;48.154;11.536;2023-10-31T03:48:29;94151.78;;;8.57;88.68
79612;BME280;69094;48.154;11.536;2023-10-31T03:50:55;94154.94;;;8.59;88.17
79612;BME280;69094;48.154;11.536;2023-10-31T03:53:20;94149.41;;;8.56;88.24
79612;BME280;69094;48.154;11.536;2023-10-31T03:55:45;94150.56;;;8.55;87.80
79612;BME280;69094;48.154;11.536;2023-10-31T03:58:11;94168.41;;;8.56;87.72
79612;BME280;69094;48.154;11.536;2023-10-31T04:00:36;94178.72;;;8.50;87.78
79612;BME280;69094;48.154;11.536;2023-10-31T04:03:02;94184.22;;;8.54;87.84
79612;BME280;69094;48.154;11.536;2023-10-31T04:05:27;94184.34;;;8.57;87.18
79612;BME280;69094;48.154;11.536;2023-10-31T04:07:52;94177.06;;;8.61;86.38
79612;BME280;69094;48.154;11.536;2023-10-31T04:10:18;94166.91;;;8.58;86.38
79612;BME280;69094;48.154;11.536;2023-10-31T04:12:44;94166.34;;;8.65;86.15
79612;BME280;69094;48.154;11.536;2023-10-31T04:15:10;94174.09;;;8.67;85.62
79612;BME280;69094;48.154;11.536;2023-10-31T04:17:35;94190.50;;;8.70;85.17
79612;BME280;69094;48.154;11.536;2023-10-31T04:20:01;94201.22;;;8.67;84.85
79612;BME280;69094;48.154;11.536;2023-10-31T04:22:26;94199.66;;;8.66;83.89
79612;BME280;69094;48.154;11.536;2023-10-31T04:24:52;94207.47;;;8.67;83.81
79612;BME280;69094;48.154;11.536;2023-10-31T04:27:18;94208.50;;;8.62;83.71
79612;BME280;69094;48.154;11.536;2023-10-31T04:29:44;94227.22;;;8.68;83.32
79612;BME280;69094;48.154;11.536;2023-10-31T04:32:09;94228.00;;;8.68;82.61
79612;BME280;69094;48.154;11.536;2023-10-31T04:34:34;94229.25;;;8.71;83.25
79612;BME280;69094;48.154;11.536;2023-10-31T04:37:00;94228.00;;;8.68;82.51
79612;BME280;69094;48.154;11.536;2023-10-31T04:39:25;94210.16;;;8.67;82.80
79612;BME280;69094;48.154;11.536;2023-10-31T04:41:50;94218.97;;;8.64;83.15
79612;BME280;69094;48.154;11.536;2023-10-31T04:44:16;94214.69;;;8.63;83.25
79612;BME280;69094;48.154;11.536;2023-10-31T04:46:42;94204.97;;;8.62;83.83
79612;BME280;69094;48.154;11.536;2023-10-31T04:49:07;94209.16;;;8.59;84.27
79612;BME280;69094;48.154;11.536;2023-10-31T04:51:34;94213.72;;;8.55;84.08
79612;BME280;69094;48.154;11.536;2023-10-31T04:53:59;94210.22;;;8.55;84.35
79612;BME280;69094;48.154;11.536;2023-10-31T04:56:25;94210.63;;;8.57;84.31
79612;BME280;69094;48.154;11.536;2023-10-31T04:58:50;94206.38;;;8.56;84.59
79612;BME280;69094;48.154;11.536;2023-10-31T05:01:15;94207.16;;;8.56;84.95
79612;BME280;69094;48.154;11.536;2023-10-31T05:03:41;94206.59;;;8.51;84.98
79612;BME280;69094;48.154;11.536;2023-10-31T05:06:06;94210.88;;;8.52;84.88
79612;BME280;69094;48.154;11.536;2023-10-31T05:08:32;94206.28;;;8.52;85.22
79612;BME280;69094;48.154;11.536;2023-10-31T05:10:58;94217.91;;;8.53;84.92
79612;BME280;69094;48.154;11.536;2023-10-31T05:13:24;94224.09;;;8.53;84.98
79612;BME280;69094;48.154;11.536;2023-10-31T05:15:52;94226.50;;;8.55;84.64
79612;BME280;69094;48.154;11.536;2023-10-31T05:18:18;94224.19;;;8.57;85.02
79612;BME280;69094;48.154;11.536;2023-10-31T05:20:43;94243.53;;;8.55;85.00
79612;BME280;69094;48.154;11.536;2023-10-31T05:23:09;94233.72;;;8.51;85.58
79612;BME280;69094;48.154;11.536;2023-10-31T05:25:35;94236.09;;;8.52;85.89
79612;BME280;69094;48.154;11.536;2023-10-31T05:28:00;94246.50;;;8.50;86.50
79612;BME280;69094;48.154;11.536;2023-10-31T05:30:26;94253.94;;;8.53;86.71
79612;BME280;69094;48.154;11.536;2023-10-31T05:32:51;94262.75;;;8.50;86.20
79612;BME280;69094;48.154;11.536;2023-10-31T05:35:17;94268.19;;;8.50;87.13
79612;BME280;69094;48.154;11.536;2023-10-31T05:37:43;94275.41;;;8.46;86.98
79612;BME280;69094;48.154;11.536;2023-10-31T05:40:29;94271.13;;;8.45;86.96
79612;BME280;69094;48.154;11.536;2023-10-31T05:42:54;94264.56;;;8.34;87.42
79612;BME280;69094;48.154;11.536;2023-10-31T05:45:20;94267.19;;;8.30;87.74
79612;BME280;69094;48.154;11.536;2023-10-31T05:47:45;94274.88;;;8.28;88.79
79612;BME280;69094;48.154;11.536;2023-10-31T05:50:10;94272.16;;;8.28;89.03
79612;BME280;69094;48.154;11.536;2023-10-31T05:52:36;94279.81;;;8.26;89.29
79612;BME280;69094;48.154;11.536;2023-10-31T05:55:02;94280.75;;;8.30;88.71
79612;BME280;69094;48.154;11.536;2023-10-31T05:57:27;94282.53;;;8.26;88.63
79612;BME280;69094;48.154;11.536;2023-10-31T05:59:53;94291.66;;;8.34;88.22
79612;BME280;69094;48.154;11.536;2023-10-31T06:02:18;94288.88;;;8.30;88.55
79612;BME280;69094;48.154;11.536;2023-10-31T06:04:43;94298.31;;;8.36;88.48
79612;BME280;69094;48.154;11.536;2023-10-31T06:07:10;94295.16;;;8.34;88.22
79612;BME280;69094;48.154;11.536;2023-10-31T06:09:36;94292.56;;;8.38;87.51
79612;BME280;69094;48.154;11.536;2023-10-31T06:12:01;94293.06;;;8.40;88.01
79612;BME280;69094;48.154;11.536;2023-10-31T06:14:27;94291.91;;;8.41;87.69
79612;BME280;69094;48.154;11.536;2023-10-31T06:16:52;94290.56;;;8.47;87.32
79612;BME280;69094;48.154;11.536;2023-10-31T06:19:19;94281.84;;;8.41;86.71
79612;BME280;69094;48.154;11.536;2023-10-31T06:21:44;94302.19;;;8.48;86.86
79612;BME280;69094;48.154;11.536;2023-10-31T06:24:09;94307.72;;;8.51;86.65
79612;BME280;69094;48.154;11.536;2023-10-31T06:26:35;94301.41;;;8.47;86.83
79612;BME280;69094;48.154;11.536;2023-10-31T06:29:01;94313.13;;;8.51;87.24
79612;BME280;69094;48.154;11.536;2023-10-31T06:31:26;94322.50;;;8.54;86.97
79612;BME280;69094;48.154;11.536;2023-10-31T06:33:51;94315.84;;;8.51;86.96
79612;BME280;69094;48.154;11.536;2023-10-31T06:36:17;94315.97;;;8.55;87.42
79612;BME280;69094;48.154;11.536;2023-10-31T06:38:42;94322.16;;;8.55;86.68
79612;BME280;69094;48.154;11.536;2023-10-31T06:41:07;94315.16;;;8.54;86.68
79612;BME280;69094;48.154;11.536;2023-10-31T06:43:33;94321.38;;;8.55;86.54
79612;BME280;69094;48.154;11.536;2023-10-31T06:45:59;94316.50;;;8.60;86.86
79612;BME280;69094;48.154;11.536;2023-10-31T06:48:26;94320.00;;;8.61;86.14
79612;BME280;69094;48.154;11.536;2023-10-31T06:50:51;94318.69;;;8.55;86.48
79612;BME280;69094;48.154;11.536;2023-10-31T06:53:16;94331.31;;;8.63;86.61
79612;BME280;69094;48.154;11.536;2023-10-31T06:55:42;94331.41;;;8.54;86.03
79612;BME280;69094;48.154;11.536;2023-10-31T06:58:07;94345.31;;;8.65;86.82
79612;BME280;69094;48.154;11.536;2023-10-31T07:00:32;94351.97;;;8.68;86.83
79612;BME280;69094;48.154;11.536;2023-10-31T07:02:58;94355.56;;;8.72;85.28
79612;BME280;69094;48.154;11.536;2023-10-31T07:05:24;94356.25;;;8.69;86.41
79612;BME280;69094;48.154;11.536;2023-10-31T07:07:50;94363.59;;;8.68;85.04
79612;BME280;69094;48.154;11.536;2023-10-31T07:10:15;94367.47;;;8.67;85.31
79612;BME280;69094;48.154;11.536;2023-10-31T07:12:40;94364.41;;;8.69;85.02
79612;BME280;69094;48.154;11.536;2023-10-31T07:15:06;94364.06;;;8.70;84.95
79612;BME280;69094;48.154;11.536;2023-10-31T07:17:32;94369.72;;;8.77;84.25
79612;BME280;69094;48.154;11.536;2023-10-31T07:19:58;94369.47;;;8.82;83.50
79612;BME280;69094;48.154;11.536;2023-10-31T07:22:23;94365.59;;;8.83;83.21
79612;BME280;69094;48.154;11.536;2023-10-31T07:24:50;94364.03;;;8.82;82.68
79612;BME280;69094;48.154;11.536;2023-10-31T07:27:16;94358.72;;;8.86;82.27
79612;BME280;69094;48.154;11.536;2023-10-31T07:29:41;94349.44;;;8.87;81.11
79612;BME280;69094;48.154;11.536;2023-10-31T07:32:10;94348.41;;;8.92;80.11
79612;BME280;69094;48.154;11.536;2023-10-31T07:34:35;94348.59;;;8.99;79.33
79612;BME280;69094;48.154;11.536;2023-10-31T07:37:01;94350.28;;;9.03;79.47
79612;BME280;69094;48.154;11.536;2023-10-31T07:39:26;94352.66;;;9.05;78.70
79612;BME280;69094;48.154;11.536;2023-10-31T07:41:52;94352.50;;;9.14;78.30
79612;BME280;69094;48.154;11.536;2023-10-31T07:44:17;94341.66;;;9.14;77.46
79612;BME280;69094;48.154;11.536;2023-10-31T07:46:42;94359.81;;;9.25;77.17
79612;BME280;69094;48.154;11.536;2023-10-31T07:49:08;94371.47;;;9.26;76.07
79612;BME280;69094;48.154;11.536;2023-10-31T07:51:33;94374.53;;;9.24;76.28
79612;BME280;69094;48.154;11.536;2023-10-31T07:53:59;94384.06;;;9.18;75.99
79612;BME280;69094;48.154;11.536;2023-10-31T07:56:25;94379.44;;;9.06;77.10
79612;BME280;69094;48.154;11.536;2023-10-31T07:58:51;94378.09;;;9.13;76.92
79612;BME280;69094;48.154;11.536;2023-10-31T08:01:18;94375.25;;;9.09;76.45
79612;BME280;69094;48.154;11.536;2023-10-31T08:03:43;94370.63;;;9.10;76.36
79612;BME280;69094;48.154;11.536;2023-10-31T08:06:10;94351.53;;;9.06;75.86
79612;BME280;69094;48.154;11.536;2023-10-31T08:08:36;94357.94;;;9.14;75.39
79612;BME280;69094;48.154;11.536;2023-10-31T08:11:02;94350.59;;;9.14;75.66
79612;BME280;69094;48.154;11.536;2023-10-31T08:13:27;94368.06;;;9.29;75.26
79612;BME280;69094;48.154;11.536;2023-10-31T08:15:52;94381.63;;;9.29;75.40
79612;BME280;69094;48.154;11.536;2023-10-31T08:18:19;94378.13;;;9.28;74.79
79612;BME280;69094;48.154;11.536;2023-10-31T08:20:44;94396.38;;;9.44;74.35
79612;BME280;69094;48.154;11.536;2023-10-31T08:23:14;94399.25;;;9.35;74.52
79612;BME280;69094;48.154;11.536;2023-10-31T08:25:39;94418.19;;;9.32;74.82
79612;BME280;69094;48.154;11.536;2023-10-31T08:28:04;94427.78;;;9.29;74.45
79612;BME280;69094;48.154;11.536;2023-10-31T08:30:30;94439.28;;;9.38;73.84
79612;BME280;69094;48.154;11.536;2023-10-31T08:32:55;94451.31;;;9.37;73.91
79612;BME280;69094;48.154;11.536;2023-10-31T08:35:21;94465.13;;;9.32;74.61
79612;BME280;69094;48.154;11.536;2023-10-31T08:37:46;94470.63;;;9.36;74.03
79612;BME280;69094;48.154;11.536;2023-10-31T08:40:11;94461.75;;;9.23;74.77
79612;BME280;69094;48.154;11.536;2023-10-31T08:42:37;94468.97;;;9.19;74.99
79612;BME280;69094;48.154;11.536;2023-10-31T08:45:02;94479.03;;;9.31;74.75
79612;BME280;69094;48.154;11.536;2023-10-31T08:47:29;94484.34;;;9.39;74.25
79612;BME280;69094;48.154;11.536;2023-10-31T08:50:16;94474.50;;;9.35;74.10
79612;BME280;69094;48.154;11.536;2023-10-31T08:52:41;94486.16;;;9.35;73.85
79612;BME280;69094;48.154;11.536;2023-10-31T08:55:07;94485.00;;;9.36;74.27
79612;BME280;69094;48.154;11.536;2023-10-31T08:57:32;94494.63;;;9.34;73.42
79612;BME280;69094;48.154;11.536;2023-10-31T08:59:59;94492.50;;;9.27;73.44
79612;BME280;69094;48.154;11.536;2023-10-31T09:05:40;94501.41;;;9.40;73.78
79612;BME280;69094;48.154;11.536;2023-10-31T09:08:07;94491.88;;;9.46;73.70
79612;BME280;69094;48.154;11.536;2023-10-31T09:10:35;94494.97;;;9.44;73.88
79612;BME280;69094;48.154;11.536;2023-10-31T09:13:02;94511.78;;;9.50;73.23
79612;BME280;69094;48.154;11.536;2023-10-31T09:15:27;94497.44;;;9.49;72.47
79612;BME280;69094;48.154;11.536;2023-10-31T09:17:52;94502.41;;;9.47;72.63
79612;BME280;69094;48.154;11.536;2023-10-31T09:20:19;94503.75;;;9.54;73.02
79612;BME280;69094;48.154;11.536;2023-10-31T09:22:44;94496.75;;;9.53;72.79
79612;BME280;69094;48.154;11.536;2023-10-31T09:25:09;94500.25;;;9.53;73.32
79612;BME280;69094;48.154;11.536;2023-10-31T09:27:37;94509.53;;;9.52;73.30
79612;BME280;69094;48.154;11.536;2023-10-31T09:30:03;94506.22;;;9.59;72.71
79612;BME280;69094;48.154;11.536;2023-10-31T09:32:29;94510.06;;;9.58;72.37
79612;BME280;69094;48.154;11.536;2023-10-31T09:34:55;94520.00;;;9.66;72.30
79612;BME280;69094;48.154;11.536;2023-10-31T09:37:20;94513.66;;;9.74;72.24
79612;BME280;69094;48.154;11.536;2023-10-31T09:39:45;94520.56;;;9.72;71.97
79612;BME280;69094;48.154;11.536;2023-10-31T09:42:11;94525.88;;;9.68;71.96
79612;BME280;69094;48.154;11.536;2023-10-31T09:44:36;94527.81;;;9.67;72.03
79612;BME280;69094;48.154;11.536;2023-10-31T09:47:02;94532.22;;;9.72;71.91
79612;BME280;69094;48.154;11.536;2023-10-31T09:49:27;94539.22;;;9.73;71.91
79612;BME280;69094;48.154;11.536;2023-10-31T09:51:53;94529.16;;;9.74;71.76
79612;BME280;69094;48.154;11.536;2023-10-31T09:54:19;94527.78;;;9.80;72.02
79612;BME280;69094;48.154;11.536;2023-10-31T09:56:45;94516.56;;;9.81;71.84
79612;BME280;69094;48.154;11.536;2023-10-31T09:59:10;94514.66;;;9.82;71.24
79612;BME280;69094;48.154;11.536;2023-10-31T10:01:36;94507.28;;;9.82;71.42
79612;BME280;69094;48.154;11.536;2023-10-31T10:04:01;94527.28;;;9.90;70.53
79612;BME280;69094;48.154;11.536;2023-10-31T10:06:28;94531.72;;;9.82;71.18
79612;BME280;69094;48.154;11.536;2023-10-31T10:08:55;94538.59;;;9.92;71.42
79612;BME280;69094;48.154;11.536;2023-10-31T10:11:21;94546.75;;;9.92;70.98
79612;BME280;69094;48.154;11.536;2023-10-31T10:13:47;94544.28;;;9.87;70.62
79612;BME280;69094;48.154;11.536;2023-10-31T10:16:12;94563.56;;;9.82;70.31
79612;BME280;69094;48.154;11.536;2023-10-31T10:18:38;94571.00;;;9.85;70.99
79612;BME280;69094;48.154;11.536;2023-10-31T10:21:06;94568.19;;;9.81;70.19
79612;BME280;69094;48.154;11.536;2023-10-31T10:23:32;94574.50;;;9.85;70.67
79612;BME280;69094;48.154;11.536;2023-10-31T10:25:58;94569.75;;;9.95;70.29
79612;BME280;69094;48.154;11.536;2023-10-31T10:28:24;94568.50;;;9.92;69.97
79612;BME280;69094;48.154;11.536;2023-10-31T10:30:51;94568.72;;;9.99;70.44
79612;BME280;69094;48.154;11.536;2023-10-31T10:33:17;94577.47;;;10.08;69.69
79612;BME280;69094;48.154;11.536;2023-10-31T10:35:43;94574.59;;;10.01;70.10
79612;BME280;69094;48.154;11.536;2023-10-31T10:38:11;94582.38;;;10.03;69.27
79612;BME280;69094;48.154;11.536;2023-10-31T10:40:42;94573.66;;;10.09;69.76
79612;BME280;69094;48.154;11.536;2023-10-31T10:43:12;94567.63;;;10.16;69.77
79612;BME280;69094;48.154;11.536;2023-10-31T10:45:42;94582.78;;;10.17;69.50
79612;BME280;69094;48.154;11.536;2023-10-31T10:48:11;94580.16;;;10.21;69.89
79612;BME280;69094;48.154;11.536;2023-10-31T10:50:41;94575.72;;;10.28;69.33
79612;BME280;69094;48.154;11.536;2023-10-31T10:55:45;94571.19;;;10.32;68.92
79612;BME280;69094;48.154;11.536;2023-10-31T11:01:14;94558.03;;;10.34;68.40
79612;BME280;69094;48.154;11.536;2023-10-31T11:03:40;94551.66;;;10.43;68.37
79612;BME280;69094;48.154;11.536;2023-10-31T11:06:06;94557.66;;;10.48;68.21
79612;BME280;69094;48.154;11.536;2023-10-31T11:08:31;94562.47;;;10.55;68.15
79612;BME280;69094;48.154;11.536;2023-10-31T11:10:57;94560.44;;;10.68;67.31
79612;BME280;69094;48.154;11.536;2023-10-31T11:13:24;94568.09;;;10.62;67.36
79612;BME280;69094;48.154;11.536;2023-10-31T11:15:54;94558.78;;;10.63;66.59
79612;BME280;69094;48.154;11.536;2023-10-31T11:18:21;94557.31;;;10.66;67.76
79612;BME280;69094;48.154;11.536;2023-10-31T11:21:29;94562.13;;;10.72;66.47
79612;BME280;69094;48.154;11.536;2023-10-31T11:23:59;94555.28;;;10.94;66.52
79612;BME280;69094;48.154;11.536;2023-10-31T11:29:36;94561.97;;;10.97;65.90
79612;BME280;69094;48.154;11.536;2023-10-31T11:32:03;94558.34;;;10.93;65.95
79612;BME280;69094;48.154;11.536;2023-10-31T11:34:31;94552.06;;;10.89;66.42
79612;BME280;69094;48.154;11.536;2023-10-31T11:38:16;94559.16;;;10.93;65.57
79612;BME280;69094;48.154;11.536;2023-10-31T11:42:42;94555.75;;;10.96;65.57
79612;BME280;69094;48.154;11.536;2023-10-31T11:45:08;94554.88;;;11.08;65.07
79612;BME280;69094;48.154;11.536;2023-10-31T11:47:46;94546.66;;;11.24;63.63
79612;BME280;69094;48.154;11.536;2023-10-31T11:50:12;94546.16;;;11.18;63.53
79612;BME280;69094;48.154;11.536;2023-10-31T11:52:38;94547.88;;;11.27;63.18
79612;BME280;69094;48.154;11.536;2023-10-31T11:55:08;94548.34;;;11.29;62.46
79612;BME280;69094;48.154;11.536;2023-10-31T11:57:34;94548.88;;;11.18;63.43
79612;BME280;69094;48.154;11.536;2023-10-31T11:59:59;94543.88;;;11.20;62.93
79612;BME280;69094;48.154;11.536;2023-10-31T12:02:25;94550.28;;;11.28;63.00
79612;BME280;69094;48.154;11.536;2023-10-31T12:04:50;94544.88;;;11.32;63.68
79612;BME280;69094;48.154;11.536;2023-10-31T12:07:18;94543.13;;;11.39;62.78
79612;BME280;69094;48.154;11.536;2023-10-31T12:09:47;94544.03;;;11.63;62.42
79612;BME280;69094;48.154;11.536;2023-10-31T12:12:13;94538.88;;;11.77;61.95
79612;BME280;69094;48.154;11.536;2023-10-31T12:14:38;94544.31;;;11.93;61.98
79612;BME280;69094;48.154;11.536;2023-10-31T12:17:04;94548.53;;;11.91;62.40
79612;BME280;69094;48.154;11.536;2023-10-31T12:23:17;94538.41;;;11.91;62.73
79612;BME280;69094;48.154;11.536;2023-10-31T12:25:50;94526.50;;;11.99;62.09
79612;BME280;69094;48.154;11.536;2023-10-31T12:28:22;94537.22;;;12.08;62.00
79612;BME280;69094;48.154;11.536;2023-10-31T12:30:50;94521.28;;;11.91;61.65
79612;BME280;69094;48.154;11.536;2023-10-31T12:33:40;94538.19;;;11.80;61.87
79612;BME280;69094;48.154;11.536;2023-10-31T12:36:30;94538.81;;;11.74;62.81
79612;BME280;69094;48.154;11.536;2023-10-31T12:38:57;94540.38;;;11.75;63.12
79612;BME280;69094;48.154;11.536;2023-10-31T12:41:24;94549.38;;;11.75;61.92
79612;BME280;69094;48.154;11.536;2023-10-31T12:43:51;94541.88;;;11.72;62.29
79612;BME280;69094;48.154;11.536;2023-10-31T12:46:35;94552.88;;;11.76;62.03
79612;BME280;69094;48.154;11.536;2023-10-31T12:49:29;94541.88;;;11.88;61.80
79612;BME280;69094;48.154;11.536;2023-10-31T12:51:59;94544.09;;;12.02;62.90
79612;BME280;69094;48.154;11.536;2023-10-31T12:54:31;94540.72;;;11.89;63.33
79612;BME280;69094;48.154;11.536;2023-10-31T12:57:01;94556.66;;;11.71;64.52
79612;BME280;69094;48.154;11.536;2023-10-31T12:59:29;94556.84;;;11.43;64.90
79612;BME280;69094;48.154;11.536;2023-10-31T13:02:03;94555.44;;;11.17;66.00
79612;BME280;69094;48.154;11.536;2023-10-31T13:04:30;94566.94;;;11.27;66.93
79612;BME280;69094;48.154;11.536;2023-10-31T13:06:59;94569.13;;;11.37;67.01
79612;BME280;69094;48.154;11.536;2023-10-31T13:09:38;94577.47;;;11.44;67.10
79612;BME280;69094;48.154;11.536;2023-10-31T13:12:05;94572.38;;;11.42;66.95
79612;BME280;69094;48.154;11.536;2023-10-31T13:14:31;94578.25;;;11.45;66.65